createdAt,value
2022-08-16T00:00:03.547Z,19.09
2022-08-16T00:02:33.446Z,19.11
2022-08-16T00:05:01.032Z,19.17
2022-08-16T00:07:29.634Z,19.17
2022-08-16T00:09:57.487Z,19.15
2022-08-16T00:12:24.696Z,19.18
2022-08-16T00:14:56.713Z,19.19
2022-08-16T00:17:25.313Z,19.15
2022-08-16T00:19:53.517Z,19.13
2022-08-16T00:22:24.888Z,19.13
2022-08-16T00:24:53.454Z,19.11
2022-08-16T00:27:21.596Z,19.12
2022-08-16T00:29:48.582Z,19.12
2022-08-16T00:32:35.418Z,19.15
2022-08-16T00:35:02.054Z,19.19
2022-08-16T00:37:57.567Z,19.27
2022-08-16T00:40:34.016Z,19.28
2022-08-16T00:43:12.352Z,19.32
2022-08-16T00:46:00.150Z,19.16
2022-08-16T00:48:30.996Z,19.14
2022-08-16T00:51:01.222Z,19.06
2022-08-16T00:53:30.814Z,19.07
2022-08-16T00:56:01.342Z,19.02
2022-08-16T00:58:35.450Z,19.00
2022-08-16T01:01:08.150Z,19.09
2022-08-16T01:03:36.477Z,18.98
2022-08-16T01:06:40.576Z,19.00
2022-08-16T01:08:53.112Z,18.91
2022-08-16T01:11:22.840Z,18.88
2022-08-16T01:13:53.078Z,18.86
2022-08-16T01:16:22.473Z,18.77
2022-08-16T01:19:11.272Z,18.74
2022-08-16T01:21:51.570Z,18.70
2022-08-16T01:24:51.451Z,18.53
2022-08-16T01:27:19.950Z,18.47
2022-08-16T01:29:58.006Z,18.42
2022-08-16T01:32:31.872Z,18.59
2022-08-16T01:35:05.533Z,18.69
2022-08-16T01:37:42.272Z,18.84
2022-08-16T01:40:11.428Z,18.95
2022-08-16T01:42:47.713Z,19.19
2022-08-16T01:45:15.789Z,19.40
2022-08-16T01:47:49.463Z,19.47
2022-08-16T01:50:41.761Z,19.51
2022-08-16T01:53:07.549Z,19.65
2022-08-16T01:55:55.714Z,19.97
2022-08-16T01:58:24.084Z,20.12
2022-08-16T02:00:50.839Z,20.30
2022-08-16T02:03:18.094Z,20.47
2022-08-16T02:05:52.556Z,20.50
2022-08-16T02:08:33.331Z,20.67
2022-08-16T02:11:05.038Z,20.59
2022-08-16T02:13:32.653Z,21.03
2022-08-16T02:15:59.937Z,20.92
2022-08-16T02:18:26.601Z,20.94
2022-08-16T02:20:53.926Z,20.86
2022-08-16T02:23:21.972Z,20.94
2022-08-16T02:25:52.213Z,21.08
2022-08-16T02:28:24.374Z,21.01
2022-08-16T02:30:52.385Z,21.10
2022-08-16T02:33:24.326Z,21.16
2022-08-16T02:35:55.159Z,21.02
2022-08-16T02:38:31.576Z,21.08
2022-08-16T02:41:00.961Z,20.98
2022-08-16T02:43:33.281Z,21.06
2022-08-16T02:46:07.431Z,21.08
2022-08-16T02:48:38.643Z,21.04
2022-08-16T02:51:10.953Z,21.08
2022-08-16T02:53:44.962Z,21.10
2022-08-16T02:56:15.978Z,21.01
2022-08-16T02:58:45.559Z,21.05
2022-08-16T03:01:24.846Z,21.04
2022-08-16T03:04:39.316Z,20.92
2022-08-16T03:06:56.381Z,20.88
2022-08-16T03:09:40.745Z,20.68
2022-08-16T03:12:11.481Z,20.78
2022-08-16T03:14:44.023Z,20.80
2022-08-16T03:17:10.808Z,20.65
2022-08-16T03:19:47.200Z,20.69
2022-08-16T03:22:28.692Z,20.53
2022-08-16T03:25:01.601Z,20.53
2022-08-16T03:27:32.686Z,20.46
2022-08-16T03:30:15.186Z,20.53
2022-08-16T03:32:47.877Z,20.51
2022-08-16T03:35:21.416Z,20.51
2022-08-16T03:38:01.880Z,20.64
2022-08-16T03:40:34.646Z,20.55
2022-08-16T03:43:20.791Z,20.36
2022-08-16T03:45:52.887Z,20.32
2022-08-16T03:48:37.129Z,20.27
2022-08-16T03:51:16.358Z,20.22
2022-08-16T03:54:01.499Z,20.19
2022-08-16T03:56:31.238Z,20.17
2022-08-16T03:58:59.394Z,20.22
2022-08-16T04:01:32.418Z,20.21
2022-08-16T04:04:01.276Z,20.23
2022-08-16T04:06:29.228Z,20.26
2022-08-16T04:08:56.245Z,20.33
2022-08-16T04:11:23.894Z,20.38
2022-08-16T04:14:00.094Z,20.45
2022-08-16T04:16:39.515Z,20.53
2022-08-16T04:19:26.054Z,20.56
2022-08-16T04:22:00.768Z,20.57
2022-08-16T04:24:30.986Z,20.63
2022-08-16T04:26:58.454Z,20.70
2022-08-16T04:29:27.883Z,20.71
2022-08-16T04:32:11.350Z,20.73
2022-08-16T04:34:42.462Z,20.84
2022-08-16T04:37:12.438Z,20.92
2022-08-16T04:39:46.691Z,21.05
2022-08-16T04:42:17.864Z,21.20
2022-08-16T04:44:54.042Z,21.25
2022-08-16T04:47:33.506Z,21.32
2022-08-16T04:50:14.478Z,21.49
2022-08-16T04:52:57.818Z,21.67
2022-08-16T04:55:31.917Z,21.70
2022-08-16T04:58:44.159Z,21.81
2022-08-16T05:00:54.851Z,21.77
2022-08-16T05:03:22.948Z,21.79
2022-08-16T05:05:59.324Z,21.80
2022-08-16T05:08:31.861Z,21.80
2022-08-16T05:11:32.132Z,21.79
2022-08-16T05:14:06.972Z,21.89
2022-08-16T05:16:37.673Z,21.95
2022-08-16T05:19:13.302Z,22.07
2022-08-16T05:22:03.027Z,22.17
2022-08-16T05:24:29.886Z,22.32
2022-08-16T05:26:56.838Z,22.48
2022-08-16T05:29:25.029Z,22.62
2022-08-16T05:32:32.441Z,22.86
2022-08-16T05:35:07.688Z,22.99
2022-08-16T05:37:40.762Z,23.11
2022-08-16T05:40:13.242Z,23.31
2022-08-16T05:42:47.840Z,23.45
2022-08-16T05:45:21.458Z,23.66
2022-08-16T05:48:00.283Z,23.80
2022-08-16T05:50:37.063Z,24.01
2022-08-16T05:53:05.182Z,24.04
2022-08-16T05:55:40.500Z,24.27
2022-08-16T05:58:07.915Z,24.38
2022-08-16T06:00:36.555Z,24.61
2022-08-16T06:03:03.681Z,24.74
2022-08-16T06:05:56.554Z,24.95
2022-08-16T06:08:32.392Z,25.05
2022-08-16T06:11:11.077Z,25.11
2022-08-16T06:13:42.259Z,25.24
2022-08-16T06:16:18.449Z,25.26
2022-08-16T06:18:50.619Z,25.28
2022-08-16T06:21:22.669Z,25.40
2022-08-16T06:23:54.334Z,25.44
2022-08-16T06:26:23.067Z,25.56
2022-08-16T06:28:50.191Z,25.63
2022-08-16T06:31:27.898Z,25.66
2022-08-16T06:33:57.357Z,25.70
2022-08-16T06:36:26.774Z,25.83
2022-08-16T06:38:59.927Z,25.79
2022-08-16T06:41:59.233Z,25.97
2022-08-16T06:44:54.525Z,26.00
2022-08-16T06:47:54.355Z,26.08
2022-08-16T06:50:28.653Z,26.17
2022-08-16T06:53:07.332Z,26.08
2022-08-16T06:55:38.614Z,26.33
2022-08-16T06:58:22.057Z,26.43
2022-08-16T07:00:59.556Z,26.55
2022-08-16T07:03:32.603Z,26.57
2022-08-16T07:06:16.630Z,26.68
2022-08-16T07:08:44.796Z,26.86
2022-08-16T07:11:11.503Z,27.02
2022-08-16T07:14:00.680Z,26.97
2022-08-16T07:16:27.997Z,27.10
2022-08-16T07:19:01.411Z,27.16
2022-08-16T07:21:46.161Z,27.27
2022-08-16T07:24:29.924Z,27.09
2022-08-16T07:27:01.222Z,27.11
2022-08-16T07:29:31.808Z,27.31
2022-08-16T07:32:01.121Z,27.40
2022-08-16T07:34:35.784Z,27.62
2022-08-16T07:37:07.851Z,27.63
2022-08-16T07:39:55.034Z,27.67
2022-08-16T07:42:28.331Z,27.77
2022-08-16T07:45:02.371Z,27.76
2022-08-16T07:47:31.498Z,27.71
2022-08-16T07:49:59.774Z,27.68
2022-08-16T07:52:29.980Z,27.75
2022-08-16T07:54:58.223Z,27.69
2022-08-16T07:57:25.355Z,27.73
2022-08-16T07:59:57.121Z,27.65
2022-08-16T08:02:27.540Z,27.80
2022-08-16T08:04:57.688Z,27.58
2022-08-16T08:07:28.197Z,27.76
2022-08-16T08:09:57.322Z,27.97
2022-08-16T08:12:32.053Z,28.04
2022-08-16T08:15:09.586Z,28.13
2022-08-16T08:17:43.025Z,28.17
2022-08-16T08:20:26.096Z,28.24
2022-08-16T08:23:00.822Z,28.34
2022-08-16T08:25:54.102Z,28.42
2022-08-16T08:28:21.015Z,28.51
2022-08-16T08:31:02.449Z,28.67
2022-08-16T08:33:34.067Z,28.34
2022-08-16T08:36:07.570Z,28.60
2022-08-16T08:38:44.128Z,28.45
2022-08-16T08:41:15.483Z,28.59
2022-08-16T08:43:50.448Z,28.64
2022-08-16T08:46:21.788Z,28.84
2022-08-16T08:48:59.981Z,28.72
2022-08-16T08:51:36.777Z,28.76
2022-08-16T08:54:09.173Z,28.84
2022-08-16T08:56:45.745Z,28.80
2022-08-16T08:59:32.697Z,28.80
2022-08-16T09:02:03.187Z,28.86
2022-08-16T09:04:38.741Z,28.75
2022-08-16T09:07:06.815Z,28.91
2022-08-16T09:09:40.884Z,29.07
2022-08-16T09:12:35.407Z,29.25
2022-08-16T09:15:06.352Z,29.29
2022-08-16T09:17:48.924Z,29.19
2022-08-16T09:20:19.124Z,29.31
2022-08-16T09:22:51.400Z,29.41
2022-08-16T09:25:26.040Z,29.55
2022-08-16T09:27:57.749Z,29.54
2022-08-16T09:30:43.124Z,29.48
2022-08-16T09:33:12.181Z,29.47
2022-08-16T09:35:39.426Z,29.54
2022-08-16T09:38:09.918Z,29.49
2022-08-16T09:40:41.746Z,29.53
2022-08-16T09:43:58.137Z,29.61
2022-08-16T09:46:45.215Z,29.66
2022-08-16T09:48:56.362Z,29.70
2022-08-16T09:51:30.624Z,29.85
2022-08-16T09:53:57.757Z,29.97
2022-08-16T09:56:28.450Z,29.83
2022-08-16T09:59:05.525Z,29.93
2022-08-16T10:01:38.673Z,29.79
2022-08-16T10:04:29.314Z,29.82
2022-08-16T10:09:25.824Z,29.98
2022-08-16T10:12:31.057Z,30.04
2022-08-16T10:14:57.730Z,30.16
2022-08-16T10:17:24.947Z,30.07
2022-08-16T10:19:53.231Z,30.17
2022-08-16T10:22:23.142Z,30.34
2022-08-16T10:24:55.754Z,30.34
2022-08-16T10:27:27.323Z,30.62
2022-08-16T10:30:00.536Z,30.69
2022-08-16T10:32:33.976Z,30.58
2022-08-16T10:35:03.349Z,30.73
2022-08-16T10:37:35.851Z,30.83
2022-08-16T10:40:28.400Z,30.99
2022-08-16T10:42:56.071Z,31.08
2022-08-16T10:45:22.872Z,31.18
2022-08-16T10:48:00.502Z,31.13
2022-08-16T10:50:32.486Z,31.30
2022-08-16T10:53:00.093Z,31.50
2022-08-16T10:55:40.747Z,31.74
2022-08-16T10:58:14.084Z,31.64
2022-08-16T11:00:46.186Z,31.75
2022-08-16T11:06:06.041Z,31.69
2022-08-16T11:08:39.636Z,31.67
2022-08-16T11:11:12.799Z,31.69
2022-08-16T11:14:06.133Z,31.81
2022-08-16T11:19:20.603Z,31.65
2022-08-16T11:24:44.728Z,31.68
2022-08-16T11:27:19.511Z,31.90
2022-08-16T11:29:49.805Z,31.56
2022-08-16T11:32:20.126Z,31.92
2022-08-16T11:35:13.982Z,31.93
2022-08-16T11:38:05.874Z,32.12
2022-08-16T11:40:32.683Z,32.30
2022-08-16T11:43:04.012Z,31.92
2022-08-16T11:45:33.752Z,32.23
2022-08-16T11:48:06.161Z,32.02
2022-08-16T11:50:33.747Z,32.02
2022-08-16T11:53:02.376Z,32.07
2022-08-16T11:55:30.925Z,31.97
2022-08-16T11:57:57.688Z,32.06
2022-08-16T12:00:33.743Z,32.18
2022-08-16T12:03:11.304Z,32.33
2022-08-16T12:05:39.561Z,32.52
2022-08-16T12:08:09.303Z,32.57
2022-08-16T12:10:38.987Z,32.75
2022-08-16T12:13:07.360Z,32.82
2022-08-16T12:15:37.233Z,32.98
2022-08-16T12:18:05.167Z,33.11
2022-08-16T12:20:36.933Z,33.04
2022-08-16T12:23:04.357Z,33.10
2022-08-16T12:25:32.851Z,33.09
2022-08-16T12:28:03.294Z,33.19
2022-08-16T12:30:38.564Z,32.97
2022-08-16T12:33:09.512Z,33.00
2022-08-16T12:35:38.256Z,33.03
2022-08-16T12:38:38.562Z,33.08
2022-08-16T12:40:56.982Z,32.61
2022-08-16T12:43:25.488Z,32.65
2022-08-16T12:45:55.164Z,32.97
2022-08-16T12:48:44.989Z,33.22
2022-08-16T12:51:22.163Z,33.50
2022-08-16T12:53:52.382Z,33.76
2022-08-16T12:56:20.857Z,33.93
2022-08-16T12:58:51.523Z,33.90
2022-08-16T13:01:22.329Z,33.99
2022-08-16T13:03:50.187Z,33.86
2022-08-16T13:06:29.290Z,34.03
2022-08-16T13:09:02.390Z,33.79
2022-08-16T13:11:37.827Z,34.07
2022-08-16T13:14:08.034Z,34.12
2022-08-16T13:16:45.986Z,34.33
2022-08-16T13:19:12.625Z,34.51
2022-08-16T13:21:39.631Z,34.10
2022-08-16T13:24:07.944Z,33.99
2022-08-16T13:26:34.566Z,34.11
2022-08-16T13:29:01.181Z,34.19
2022-08-16T13:31:27.824Z,34.38
2022-08-16T13:33:58.534Z,34.06
2022-08-16T13:36:47.643Z,34.02
2022-08-16T13:39:12.562Z,34.06
2022-08-16T13:41:39.241Z,33.99
2022-08-16T13:44:09.125Z,34.17
2022-08-16T13:46:36.903Z,34.38
2022-08-16T13:49:04.241Z,34.38
2022-08-16T13:51:31.133Z,34.26
2022-08-16T13:54:03.130Z,34.17
2022-08-16T13:56:37.728Z,33.91
2022-08-16T13:59:19.465Z,34.08
2022-08-16T14:01:55.710Z,34.35
2022-08-16T14:04:26.855Z,34.37
2022-08-16T14:06:55.371Z,34.46
2022-08-16T14:09:23.159Z,34.40
2022-08-16T14:11:53.372Z,34.53
2022-08-16T14:14:21.617Z,34.48
2022-08-16T14:16:59.651Z,34.64
2022-08-16T14:19:27.945Z,34.50
2022-08-16T14:22:15.452Z,34.20
2022-08-16T14:24:49.337Z,33.73
2022-08-16T14:27:21.194Z,33.72
2022-08-16T14:29:50.016Z,33.81
2022-08-16T14:32:29.093Z,33.49
2022-08-16T14:35:04.194Z,33.76
2022-08-16T14:37:32.066Z,33.59
2022-08-16T14:39:59.758Z,33.33
2022-08-16T14:42:26.660Z,33.25
2022-08-16T14:44:54.167Z,33.48
2022-08-16T14:47:22.266Z,33.51
2022-08-16T14:49:49.455Z,33.69
2022-08-16T14:52:44.641Z,33.87
2022-08-16T14:55:10.841Z,33.71
2022-08-16T14:57:39.579Z,33.70
2022-08-16T15:00:11.979Z,33.38
2022-08-16T15:02:40.389Z,33.29
2022-08-16T15:05:09.335Z,33.25
2022-08-16T15:07:36.636Z,33.17
2022-08-16T15:10:21.763Z,33.12
2022-08-16T15:12:56.280Z,33.14
2022-08-16T15:15:27.564Z,32.99
2022-08-16T15:17:57.041Z,33.10
2022-08-16T15:20:29.938Z,33.17
2022-08-16T15:22:58.513Z,33.31
2022-08-16T15:25:31.018Z,33.38
2022-08-16T15:28:04.666Z,32.86
2022-08-16T15:30:58.015Z,32.99
2022-08-16T15:33:25.578Z,33.02
2022-08-16T15:35:55.504Z,33.12
2022-08-16T15:38:55.088Z,33.25
2022-08-16T15:41:13.388Z,33.09
2022-08-16T15:43:40.485Z,32.87
2022-08-16T15:46:55.712Z,32.86
2022-08-16T15:49:12.080Z,32.66
2022-08-16T15:51:39.306Z,32.65
2022-08-16T15:54:29.388Z,32.63
2022-08-16T15:56:55.308Z,32.44
2022-08-16T15:59:24.578Z,32.16
2022-08-16T16:01:55.808Z,32.32
2022-08-16T16:04:25.510Z,32.23
2022-08-16T16:06:55.188Z,32.26
2022-08-16T16:09:26.207Z,32.09
2022-08-16T16:12:16.299Z,31.97
2022-08-16T16:14:52.384Z,31.88
2022-08-16T16:17:19.003Z,31.94
2022-08-16T16:19:45.637Z,31.86
2022-08-16T16:22:16.915Z,31.81
2022-08-16T16:24:47.041Z,31.69
2022-08-16T16:27:14.115Z,31.70
2022-08-16T16:29:42.679Z,31.50
2022-08-16T16:32:13.425Z,31.34
2022-08-16T16:34:43.185Z,31.36
2022-08-16T16:37:10.380Z,31.26
2022-08-16T16:39:37.742Z,31.22
2022-08-16T16:42:05.242Z,31.14
2022-08-16T16:44:36.328Z,31.12
2022-08-16T16:47:04.367Z,30.98
2022-08-16T16:49:32.961Z,31.00
2022-08-16T16:52:07.048Z,30.85
2022-08-16T16:54:35.604Z,30.54
2022-08-16T16:57:04.163Z,30.51
2022-08-16T16:59:30.871Z,30.38
2022-08-16T17:02:41.800Z,30.17
2022-08-16T17:04:46.342Z,30.17
2022-08-16T17:07:14.287Z,30.03
2022-08-16T17:09:41.359Z,29.86
2022-08-16T17:12:10.215Z,29.67
2022-08-16T17:14:44.311Z,29.63
2022-08-16T17:17:13.172Z,29.57
2022-08-16T17:19:41.572Z,29.41
2022-08-16T17:22:14.516Z,29.22
2022-08-16T17:24:45.185Z,29.20
2022-08-16T17:27:32.530Z,29.14
2022-08-16T17:30:17.222Z,28.98
2022-08-16T17:32:50.080Z,28.72
2022-08-16T17:35:33.733Z,28.81
2022-08-16T17:38:05.881Z,28.65
2022-08-16T17:40:46.664Z,28.46
2022-08-16T17:43:27.347Z,28.34
2022-08-16T17:45:54.340Z,28.19
2022-08-16T17:48:21.014Z,28.12
2022-08-16T17:50:49.136Z,28.04
2022-08-16T17:53:22.059Z,27.87
2022-08-16T17:55:50.557Z,27.79
2022-08-16T17:58:22.916Z,27.70
2022-08-16T18:00:56.024Z,27.52
2022-08-16T18:04:03.147Z,27.37
2022-08-16T18:06:17.119Z,27.25
2022-08-16T18:08:46.750Z,27.11
2022-08-16T18:11:18.219Z,26.94
2022-08-16T18:13:48.772Z,26.83
2022-08-16T18:16:16.711Z,26.72
2022-08-16T18:18:44.373Z,26.59
2022-08-16T18:21:29.845Z,26.46
2022-08-16T18:23:56.533Z,26.33
2022-08-16T18:26:23.231Z,26.24
2022-08-16T18:28:51.094Z,26.14
2022-08-16T18:31:17.763Z,25.99
2022-08-16T18:33:44.397Z,25.84
2022-08-16T18:36:19.883Z,25.69
2022-08-16T18:38:49.286Z,25.55
2022-08-16T18:41:16.439Z,25.42
2022-08-16T18:44:23.685Z,25.31
2022-08-16T18:46:29.691Z,25.04
2022-08-16T18:48:56.296Z,24.95
2022-08-16T18:51:25.231Z,24.80
2022-08-16T18:53:52.666Z,24.66
2022-08-16T18:56:19.630Z,24.55
2022-08-16T18:58:46.262Z,24.45
2022-08-16T19:01:12.903Z,24.33
2022-08-16T19:03:39.528Z,24.15
2022-08-16T19:06:10.497Z,24.04
2022-08-16T19:08:39.074Z,23.93
2022-08-16T19:11:10.370Z,23.84
2022-08-16T19:13:37.019Z,23.72
2022-08-16T19:16:04.278Z,23.64
2022-08-16T19:18:36.814Z,23.54
2022-08-16T19:21:04.715Z,23.46
2022-08-16T19:23:34.408Z,23.39
2022-08-16T19:26:10.806Z,23.29
2022-08-16T19:28:51.067Z,23.26
2022-08-16T19:31:31.298Z,23.21
2022-08-16T19:33:59.313Z,23.14
2022-08-16T19:36:35.994Z,23.03
2022-08-16T19:39:15.295Z,23.00
2022-08-16T19:41:45.400Z,22.96
2022-08-16T19:44:12.619Z,22.89
2022-08-16T19:46:43.551Z,22.78
2022-08-16T19:49:10.226Z,22.71
2022-08-16T19:51:43.031Z,22.65
2022-08-16T19:54:09.627Z,22.59
2022-08-16T19:56:36.225Z,22.52
2022-08-16T19:59:20.918Z,22.47
2022-08-16T20:01:51.113Z,22.44
2022-08-16T20:04:18.575Z,22.40
2022-08-16T20:06:45.332Z,22.33
2022-08-16T20:09:15.725Z,22.28
2022-08-16T20:11:52.821Z,22.28
2022-08-16T20:14:25.662Z,22.26
2022-08-16T20:16:54.890Z,22.26
2022-08-16T20:19:21.561Z,22.20
2022-08-16T20:21:48.337Z,22.16
2022-08-16T20:27:02.786Z,22.13
2022-08-16T20:29:29.424Z,22.08
2022-08-16T20:31:56.346Z,22.02
2022-08-16T20:34:22.982Z,21.98
2022-08-16T20:36:49.664Z,21.93
2022-08-16T20:39:16.366Z,21.97
2022-08-16T20:41:43.451Z,21.90
2022-08-16T20:44:10.967Z,21.88
2022-08-16T20:46:39.015Z,21.86
2022-08-16T20:49:08.803Z,21.81
2022-08-16T20:51:46.906Z,21.77
2022-08-16T20:54:16.751Z,21.77
2022-08-16T20:56:43.381Z,21.77
2022-08-16T20:59:10.113Z,21.75
2022-08-16T21:01:45.838Z,21.73
2022-08-16T21:04:16.569Z,21.69
2022-08-16T21:06:53.232Z,21.64
2022-08-16T21:09:23.397Z,21.56
2022-08-16T21:11:52.826Z,21.53
2022-08-16T21:14:19.466Z,21.49
2022-08-16T21:16:46.083Z,21.48
2022-08-16T21:19:12.963Z,21.43
2022-08-16T21:21:39.578Z,21.35
2022-08-16T21:24:06.242Z,21.30
2022-08-16T21:26:32.878Z,21.25
2022-08-16T21:29:05.900Z,21.19
2022-08-16T21:31:34.409Z,21.12
2022-08-16T21:34:02.344Z,21.04
2022-08-16T21:36:34.801Z,20.98
2022-08-16T21:39:05.618Z,20.95
2022-08-16T21:41:32.659Z,20.92
2022-08-16T21:43:59.225Z,20.90
2022-08-16T21:46:26.049Z,20.87
2022-08-16T21:48:52.620Z,20.85
2022-08-16T21:51:19.305Z,20.82
2022-08-16T21:53:45.945Z,20.83
2022-08-16T21:56:17.046Z,20.84
2022-08-16T21:58:45.158Z,20.82
2022-08-16T22:01:11.718Z,20.82
2022-08-16T22:03:38.457Z,20.82
2022-08-16T22:06:12.920Z,20.84
2022-08-16T22:08:49.564Z,20.84
2022-08-16T22:11:22.954Z,20.86
2022-08-16T22:13:52.799Z,20.86
2022-08-16T22:16:34.165Z,20.86
2022-08-16T22:19:02.016Z,20.87
2022-08-16T22:21:28.929Z,20.87
2022-08-16T22:23:57.618Z,20.90
2022-08-16T22:26:31.702Z,20.88
2022-08-16T22:29:04.877Z,20.88
2022-08-16T22:31:31.572Z,20.87
2022-08-16T22:33:58.939Z,20.88
2022-08-16T22:36:28.629Z,20.88
2022-08-16T22:38:57.996Z,20.87
2022-08-16T22:41:26.596Z,20.85
2022-08-16T22:43:53.380Z,20.83
2022-08-16T22:46:19.967Z,20.84
2022-08-16T22:48:49.993Z,20.85
2022-08-16T22:51:17.710Z,20.86
2022-08-16T22:53:44.359Z,20.84
2022-08-16T22:56:11.108Z,20.83
2022-08-16T22:58:37.686Z,20.83
2022-08-16T23:01:06.530Z,20.80
2022-08-16T23:03:33.349Z,20.81
2022-08-16T23:06:00.499Z,20.81
2022-08-16T23:08:38.410Z,20.78
2022-08-16T23:11:09.030Z,20.80
2022-08-16T23:13:35.907Z,20.78
2022-08-16T23:16:10.864Z,20.79
2022-08-16T23:18:38.856Z,20.78
2022-08-16T23:21:08.758Z,20.79
2022-08-16T23:23:35.765Z,20.77
2022-08-16T23:26:02.586Z,20.77
2022-08-16T23:28:49.971Z,20.76
2022-08-16T23:31:16.743Z,20.77
2022-08-16T23:33:43.378Z,20.75
2022-08-16T23:36:10.434Z,20.73
2022-08-16T23:38:39.502Z,20.75
2022-08-16T23:41:09.302Z,20.74
2022-08-16T23:43:43.148Z,20.69
2022-08-16T23:46:19.426Z,20.67
2022-08-16T23:49:56.467Z,20.67
2022-08-16T23:51:33.363Z,20.62
2022-08-16T23:54:01.155Z,20.59
2022-08-16T23:56:27.778Z,20.60
2022-08-16T23:59:02.958Z,20.57
